sensor_id;sensor_type;location;lat;lon;timestamp;temperature;humidity
54126;DHT22;40360;52.992;6.796;2024-01-07T00:00:03;0.40;99.90
54126;DHT22;40360;52.992;6.796;2024-01-07T00:02:29;0.40;99.90
54126;DHT22;40360;52.992;6.796;2024-01-07T00:04:56;0.40;99.90
54126;DHT22;40360;52.992;6.796;2024-01-07T00:07:22;0.40;99.90
54126;DHT22;40360;52.992;6.796;2024-01-07T00:09:47;0.40;99.90
54126;DHT22;40360;52.992;6.796;2024-01-07T00:12:13;0.40;99.90
54126;DHT22;40360;52.992;6.796;2024-01-07T00:14:39;0.40;99.90
54126;DHT22;40360;52.992;6.796;2024-01-07T00:17:04;0.40;99.90
54126;DHT22;40360;52.992;6.796;2024-01-07T00:19:30;0.40;99.90
54126;DHT22;40360;52.992;6.796;2024-01-07T00:22:01;0.40;99.90
54126;DHT22;40360;52.992;6.796;2024-01-07T00:24:26;0.60;99.90
54126;DHT22;40360;52.992;6.796;2024-01-07T00:26:54;0.40;99.90
54126;DHT22;40360;52.992;6.796;2024-01-07T00:29:20;0.40;99.90
54126;DHT22;40360;52.992;6.796;2024-01-07T00:31:46;0.40;99.90
54126;DHT22;40360;52.992;6.796;2024-01-07T00:34:11;0.40;99.90
54126;DHT22;40360;52.992;6.796;2024-01-07T00:36:37;0.40;99.90
54126;DHT22;40360;52.992;6.796;2024-01-07T00:39:03;0.40;99.90
54126;DHT22;40360;52.992;6.796;2024-01-07T00:41:29;0.40;99.90
54126;DHT22;40360;52.992;6.796;2024-01-07T00:43:56;0.40;99.90
54126;DHT22;40360;52.992;6.796;2024-01-07T00:46:22;0.40;99.90
54126;DHT22;40360;52.992;6.796;2024-01-07T00:48:47;0.40;99.90
54126;DHT22;40360;52.992;6.796;2024-01-07T00:51:13;0.30;99.90
54126;DHT22;40360;52.992;6.796;2024-01-07T00:53:39;0.30;99.90
54126;DHT22;40360;52.992;6.796;2024-01-07T00:56:05;0.30;99.90
54126;DHT22;40360;52.992;6.796;2024-01-07T00:58:31;0.40;99.90
54126;DHT22;40360;52.992;6.796;2024-01-07T01:00:56;0.60;99.90
54126;DHT22;40360;52.992;6.796;2024-01-07T01:03:22;0.40;99.90
54126;DHT22;40360;52.992;6.796;2024-01-07T01:05:48;0.40;99.90
54126;DHT22;40360;52.992;6.796;2024-01-07T01:08:14;0.40;99.90
54126;DHT22;40360;52.992;6.796;2024-01-07T01:10:39;0.40;99.90
54126;DHT22;40360;52.992;6.796;2024-01-07T01:13:05;0.40;99.90
54126;DHT22;40360;52.992;6.796;2024-01-07T01:15:30;0.40;99.90
54126;DHT22;40360;52.992;6.796;2024-01-07T01:17:56;0.30;99.90
54126;DHT22;40360;52.992;6.796;2024-01-07T01:20:22;0.30;99.90
54126;DHT22;40360;52.992;6.796;2024-01-07T01:22:47;0.30;99.90
54126;DHT22;40360;52.992;6.796;2024-01-07T01:25:13;0.30;99.90
54126;DHT22;40360;52.992;6.796;2024-01-07T01:27:39;0.30;99.90
54126;DHT22;40360;52.992;6.796;2024-01-07T01:30:05;0.30;99.90
54126;DHT22;40360;52.992;6.796;2024-01-07T01:32:31;0.30;99.90
54126;DHT22;40360;52.992;6.796;2024-01-07T01:34:57;0.30;99.90
54126;DHT22;40360;52.992;6.796;2024-01-07T01:37:22;0.30;99.90
54126;DHT22;40360;52.992;6.796;2024-01-07T01:39:48;0.30;99.90
54126;DHT22;40360;52.992;6.796;2024-01-07T01:42:14;0.30;99.90
54126;DHT22;40360;52.992;6.796;2024-01-07T01:44:39;0.30;99.90
54126;DHT22;40360;52.992;6.796;2024-01-07T01:47:07;0.30;99.90
54126;DHT22;40360;52.992;6.796;2024-01-07T01:49:35;0.30;99.90
54126;DHT22;40360;52.992;6.796;2024-01-07T01:52:04;0.30;99.90
54126;DHT22;40360;52.992;6.796;2024-01-07T01:54:30;0.30;99.90
54126;DHT22;40360;52.992;6.796;2024-01-07T01:56:55;0.30;99.90
54126;DHT22;40360;52.992;6.796;2024-01-07T01:59:22;0.30;99.90
54126;DHT22;40360;52.992;6.796;2024-01-07T02:01:47;0.30;99.90
54126;DHT22;40360;52.992;6.796;2024-01-07T02:04:17;0.30;99.90
54126;DHT22;40360;52.992;6.796;2024-01-07T02:06:45;0.30;99.90
54126;DHT22;40360;52.992;6.796;2024-01-07T02:09:11;0.20;99.90
54126;DHT22;40360;52.992;6.796;2024-01-07T02:11:36;0.30;99.90
54126;DHT22;40360;52.992;6.796;2024-01-07T02:14:02;0.30;99.90
54126;DHT22;40360;52.992;6.796;2024-01-07T02:16:28;0.20;99.90
54126;DHT22;40360;52.992;6.796;2024-01-07T02:18:54;0.30;99.90
54126;DHT22;40360;52.992;6.796;2024-01-07T02:21:19;0.20;99.90
54126;DHT22;40360;52.992;6.796;2024-01-07T02:23:45;0.20;99.90
54126;DHT22;40360;52.992;6.796;2024-01-07T02:26:11;0.20;99.90
54126;DHT22;40360;52.992;6.796;2024-01-07T02:28:36;0.20;99.90
54126;DHT22;40360;52.992;6.796;2024-01-07T02:31:02;0.30;99.90
54126;DHT22;40360;52.992;6.796;2024-01-07T02:33:28;0.20;99.90
54126;DHT22;40360;52.992;6.796;2024-01-07T02:35:54;0.20;99.90
54126;DHT22;40360;52.992;6.796;2024-01-07T02:38:20;0.20;99.90
54126;DHT22;40360;52.992;6.796;2024-01-07T02:40:46;0.30;99.90
54126;DHT22;40360;52.992;6.796;2024-01-07T02:43:11;0.10;99.90
54126;DHT22;40360;52.992;6.796;2024-01-07T02:45:37;0.10;99.90
54126;DHT22;40360;52.992;6.796;2024-01-07T02:48:03;0.10;99.90
54126;DHT22;40360;52.992;6.796;2024-01-07T02:50:29;0.10;99.90
54126;DHT22;40360;52.992;6.796;2024-01-07T02:52:55;0.10;99.90
54126;DHT22;40360;52.992;6.796;2024-01-07T02:55:20;0.10;99.90
54126;DHT22;40360;52.992;6.796;2024-01-07T02:57:46;0.10;99.90
54126;DHT22;40360;52.992;6.796;2024-01-07T03:00:12;0.10;99.90
54126;DHT22;40360;52.992;6.796;2024-01-07T03:02:38;0.10;99.90
54126;DHT22;40360;52.992;6.796;2024-01-07T03:05:03;0.10;99.90
54126;DHT22;40360;52.992;6.796;2024-01-07T03:07:29;0.10;99.90
54126;DHT22;40360;52.992;6.796;2024-01-07T03:09:55;0.10;99.90
54126;DHT22;40360;52.992;6.796;2024-01-07T03:12:21;0.10;99.90
54126;DHT22;40360;52.992;6.796;2024-01-07T03:14:46;0.10;99.90
54126;DHT22;40360;52.992;6.796;2024-01-07T03:17:12;0.10;99.90
54126;DHT22;40360;52.992;6.796;2024-01-07T03:19:38;0.30;99.90
54126;DHT22;40360;52.992;6.796;2024-01-07T03:22:04;0.10;99.90
54126;DHT22;40360;52.992;6.796;2024-01-07T03:24:32;0.10;99.90
54126;DHT22;40360;52.992;6.796;2024-01-07T03:26:58;0.10;99.90
54126;DHT22;40360;52.992;6.796;2024-01-07T03:29:23;0.10;99.90
54126;DHT22;40360;52.992;6.796;2024-01-07T03:31:49;0.10;99.90
54126;DHT22;40360;52.992;6.796;2024-01-07T03:34:16;0.10;99.90
54126;DHT22;40360;52.992;6.796;2024-01-07T03:36:42;0.10;99.90
54126;DHT22;40360;52.992;6.796;2024-01-07T03:39:07;0.10;99.90
54126;DHT22;40360;52.992;6.796;2024-01-07T03:41:33;0.10;99.90
54126;DHT22;40360;52.992;6.796;2024-01-07T03:43:59;0.10;99.90
54126;DHT22;40360;52.992;6.796;2024-01-07T03:46:25;0.00;99.90
54126;DHT22;40360;52.992;6.796;2024-01-07T03:48:50;0.00;99.90
54126;DHT22;40360;52.992;6.796;2024-01-07T03:51:16;0.00;99.90
54126;DHT22;40360;52.992;6.796;2024-01-07T03:53:42;0.00;99.90
54126;DHT22;40360;52.992;6.796;2024-01-07T03:56:08;0.00;99.90
54126;DHT22;40360;52.992;6.796;2024-01-07T03:58:33;0.10;99.90
54126;DHT22;40360;52.992;6.796;2024-01-07T04:01:00;0.00;99.90
54126;DHT22;40360;52.992;6.796;2024-01-07T04:03:26;0.00;99.90
54126;DHT22;40360;52.992;6.796;2024-01-07T04:05:52;0.00;99.90
54126;DHT22;40360;52.992;6.796;2024-01-07T04:08:17;0.00;99.90
54126;DHT22;40360;52.992;6.796;2024-01-07T04:10:43;0.00;99.90
54126;DHT22;40360;52.992;6.796;2024-01-07T04:13:09;0.00;99.90
54126;DHT22;40360;52.992;6.796;2024-01-07T04:15:35;0.00;99.90
54126;DHT22;40360;52.992;6.796;2024-01-07T04:18:04;0.00;99.90
54126;DHT22;40360;52.992;6.796;2024-01-07T04:20:30;0.00;99.90
54126;DHT22;40360;52.992;6.796;2024-01-07T04:22:57;0.00;99.90
54126;DHT22;40360;52.992;6.796;2024-01-07T04:25:23;0.00;99.90
54126;DHT22;40360;52.992;6.796;2024-01-07T04:27:49;0.00;99.90
54126;DHT22;40360;52.992;6.796;2024-01-07T04:30:15;0.00;99.90
54126;DHT22;40360;52.992;6.796;2024-01-07T04:32:40;0.00;99.90
54126;DHT22;40360;52.992;6.796;2024-01-07T04:35:06;0.20;99.90
54126;DHT22;40360;52.992;6.796;2024-01-07T04:37:33;0.00;99.90
54126;DHT22;40360;52.992;6.796;2024-01-07T04:39:58;-0.10;99.90
54126;DHT22;40360;52.992;6.796;2024-01-07T04:42:24;0.00;99.90
54126;DHT22;40360;52.992;6.796;2024-01-07T04:44:50;0.00;99.90
54126;DHT22;40360;52.992;6.796;2024-01-07T04:47:30;0.00;99.90
54126;DHT22;40360;52.992;6.796;2024-01-07T04:49:56;0.00;99.90
54126;DHT22;40360;52.992;6.796;2024-01-07T04:52:23;0.00;99.90
54126;DHT22;40360;52.992;6.796;2024-01-07T04:54:51;0.00;99.90
54126;DHT22;40360;52.992;6.796;2024-01-07T04:57:16;0.00;99.90
54126;DHT22;40360;52.992;6.796;2024-01-07T04:59:42;0.00;99.90
54126;DHT22;40360;52.992;6.796;2024-01-07T05:02:08;0.00;99.90
54126;DHT22;40360;52.992;6.796;2024-01-07T05:04:34;0.00;99.90
54126;DHT22;40360;52.992;6.796;2024-01-07T05:06:59;0.00;99.90
54126;DHT22;40360;52.992;6.796;2024-01-07T05:09:25;0.00;99.90
54126;DHT22;40360;52.992;6.796;2024-01-07T05:11:51;0.00;99.90
54126;DHT22;40360;52.992;6.796;2024-01-07T05:14:16;0.00;99.90
54126;DHT22;40360;52.992;6.796;2024-01-07T05:16:42;0.00;99.90
54126;DHT22;40360;52.992;6.796;2024-01-07T05:19:08;0.00;99.90
54126;DHT22;40360;52.992;6.796;2024-01-07T05:21:33;0.00;99.90
54126;DHT22;40360;52.992;6.796;2024-01-07T05:23:59;0.00;99.90
54126;DHT22;40360;52.992;6.796;2024-01-07T05:26:25;0.00;99.90
54126;DHT22;40360;52.992;6.796;2024-01-07T05:28:50;0.00;99.90
54126;DHT22;40360;52.992;6.796;2024-01-07T05:31:20;0.00;99.90
54126;DHT22;40360;52.992;6.796;2024-01-07T05:33:46;0.00;99.90
54126;DHT22;40360;52.992;6.796;2024-01-07T05:36:12;0.00;99.90
54126;DHT22;40360;52.992;6.796;2024-01-07T05:38:41;0.00;99.90
54126;DHT22;40360;52.992;6.796;2024-01-07T05:41:07;0.00;99.90
54126;DHT22;40360;52.992;6.796;2024-01-07T05:43:33;0.00;99.90
54126;DHT22;40360;52.992;6.796;2024-01-07T05:45:58;0.00;99.90
54126;DHT22;40360;52.992;6.796;2024-01-07T05:48:24;0.00;99.90
54126;DHT22;40360;52.992;6.796;2024-01-07T05:50:50;-0.10;99.90
54126;DHT22;40360;52.992;6.796;2024-01-07T05:53:17;-0.10;99.90
54126;DHT22;40360;52.992;6.796;2024-01-07T05:55:43;0.80;99.90
54126;DHT22;40360;52.992;6.796;2024-01-07T05:58:08;-0.10;99.90
54126;DHT22;40360;52.992;6.796;2024-01-07T06:00:34;-0.10;99.90
54126;DHT22;40360;52.992;6.796;2024-01-07T06:03:00;-0.10;99.90
54126;DHT22;40360;52.992;6.796;2024-01-07T06:05:26;0.00;99.90
54126;DHT22;40360;52.992;6.796;2024-01-07T06:07:51;-0.10;99.90
54126;DHT22;40360;52.992;6.796;2024-01-07T06:10:17;-0.10;99.90
54126;DHT22;40360;52.992;6.796;2024-01-07T06:12:43;0.00;99.90
54126;DHT22;40360;52.992;6.796;2024-01-07T06:15:09;0.00;99.90
54126;DHT22;40360;52.992;6.796;2024-01-07T06:17:35;0.00;99.90
54126;DHT22;40360;52.992;6.796;2024-01-07T06:20:00;0.00;99.90
54126;DHT22;40360;52.992;6.796;2024-01-07T06:22:26;0.00;99.90
54126;DHT22;40360;52.992;6.796;2024-01-07T06:24:52;0.00;99.90
54126;DHT22;40360;52.992;6.796;2024-01-07T06:27:17;0.00;99.90
54126;DHT22;40360;52.992;6.796;2024-01-07T06:29:43;0.30;99.90
54126;DHT22;40360;52.992;6.796;2024-01-07T06:32:09;0.00;99.90
54126;DHT22;40360;52.992;6.796;2024-01-07T06:34:37;0.00;99.90
54126;DHT22;40360;52.992;6.796;2024-01-07T06:37:03;0.00;99.90
54126;DHT22;40360;52.992;6.796;2024-01-07T06:39:29;0.00;99.90
54126;DHT22;40360;52.992;6.796;2024-01-07T06:41:54;0.00;99.90
54126;DHT22;40360;52.992;6.796;2024-01-07T06:44:20;0.00;99.90
54126;DHT22;40360;52.992;6.796;2024-01-07T06:46:46;0.00;99.90
54126;DHT22;40360;52.992;6.796;2024-01-07T06:49:11;0.00;99.90
54126;DHT22;40360;52.992;6.796;2024-01-07T06:51:38;0.00;99.90
54126;DHT22;40360;52.992;6.796;2024-01-07T06:54:04;0.20;99.90
54126;DHT22;40360;52.992;6.796;2024-01-07T06:56:30;0.20;99.90
54126;DHT22;40360;52.992;6.796;2024-01-07T06:58:56;0.00;99.90
54126;DHT22;40360;52.992;6.796;2024-01-07T07:01:22;0.00;99.90
54126;DHT22;40360;52.992;6.796;2024-01-07T07:03:49;0.00;99.90
54126;DHT22;40360;52.992;6.796;2024-01-07T07:22:23;-0.10;99.90
54126;DHT22;40360;52.992;6.796;2024-01-07T07:24:49;-0.20;99.90
54126;DHT22;40360;52.992;6.796;2024-01-07T07:27:14;-0.20;99.90
54126;DHT22;40360;52.992;6.796;2024-01-07T07:29:40;-0.20;99.90
54126;DHT22;40360;52.992;6.796;2024-01-07T07:32:06;-0.20;99.90
54126;DHT22;40360;52.992;6.796;2024-01-07T07:34:33;-0.20;99.90
54126;DHT22;40360;52.992;6.796;2024-01-07T07:36:58;-0.30;99.90
54126;DHT22;40360;52.992;6.796;2024-01-07T07:39:24;-0.30;99.90
54126;DHT22;40360;52.992;6.796;2024-01-07T07:41:50;-0.30;99.90
54126;DHT22;40360;52.992;6.796;2024-01-07T07:44:15;-0.30;99.90
54126;DHT22;40360;52.992;6.796;2024-01-07T07:46:41;-0.40;99.90
54126;DHT22;40360;52.992;6.796;2024-01-07T07:49:07;-0.30;99.90
54126;DHT22;40360;52.992;6.796;2024-01-07T07:51:32;-0.40;99.90
54126;DHT22;40360;52.992;6.796;2024-01-07T07:53:58;-0.50;99.90
54126;DHT22;40360;52.992;6.796;2024-01-07T07:56:24;-0.50;99.90
54126;DHT22;40360;52.992;6.796;2024-01-07T07:58:49;-0.50;99.90
54126;DHT22;40360;52.992;6.796;2024-01-07T08:01:16;-0.50;99.90
54126;DHT22;40360;52.992;6.796;2024-01-07T08:03:42;-0.60;99.90
54126;DHT22;40360;52.992;6.796;2024-01-07T08:06:08;-0.60;99.90
54126;DHT22;40360;52.992;6.796;2024-01-07T08:08:33;-0.60;99.90
54126;DHT22;40360;52.992;6.796;2024-01-07T08:10:59;-0.60;99.90
54126;DHT22;40360;52.992;6.796;2024-01-07T08:13:25;-0.60;99.90
54126;DHT22;40360;52.992;6.796;2024-01-07T08:15:50;-0.60;99.90
54126;DHT22;40360;52.992;6.796;2024-01-07T08:18:16;-0.60;99.90
54126;DHT22;40360;52.992;6.796;2024-01-07T08:20:43;-0.60;99.90
54126;DHT22;40360;52.992;6.796;2024-01-07T08:23:08;-0.60;99.90
54126;DHT22;40360;52.992;6.796;2024-01-07T08:25:35;-0.60;99.90
54126;DHT22;40360;52.992;6.796;2024-01-07T08:28:01;-0.60;99.90
54126;DHT22;40360;52.992;6.796;2024-01-07T08:30:27;-0.60;99.90
54126;DHT22;40360;52.992;6.796;2024-01-07T08:32:52;-0.60;99.90
54126;DHT22;40360;52.992;6.796;2024-01-07T08:35:18;-0.60;99.90
54126;DHT22;40360;52.992;6.796;2024-01-07T08:37:44;-0.60;99.90
54126;DHT22;40360;52.992;6.796;2024-01-07T08:40:11;-0.60;99.90
54126;DHT22;40360;52.992;6.796;2024-01-07T08:42:38;-0.60;99.90
54126;DHT22;40360;52.992;6.796;2024-01-07T08:45:05;-0.40;99.90
54126;DHT22;40360;52.992;6.796;2024-01-07T08:47:31;-0.50;99.90
54126;DHT22;40360;52.992;6.796;2024-01-07T08:49:57;-0.50;99.90
54126;DHT22;40360;52.992;6.796;2024-01-07T08:52:23;-0.40;99.90
54126;DHT22;40360;52.992;6.796;2024-01-07T08:54:49;-0.40;99.90
54126;DHT22;40360;52.992;6.796;2024-01-07T08:57:15;-0.40;99.90
54126;DHT22;40360;52.992;6.796;2024-01-07T08:59:40;-0.30;99.90
54126;DHT22;40360;52.992;6.796;2024-01-07T09:02:06;-0.30;99.90
54126;DHT22;40360;52.992;6.796;2024-01-07T09:04:32;-0.30;99.90
54126;DHT22;40360;52.992;6.796;2024-01-07T09:06:59;-0.20;99.90
54126;DHT22;40360;52.992;6.796;2024-01-07T09:09:25;-0.20;99.90
54126;DHT22;40360;52.992;6.796;2024-01-07T09:11:52;-0.20;99.90
54126;DHT22;40360;52.992;6.796;2024-01-07T09:14:18;-0.10;99.90
54126;DHT22;40360;52.992;6.796;2024-01-07T09:16:43;-0.10;99.90
54126;DHT22;40360;52.992;6.796;2024-01-07T09:19:10;-0.10;99.90
54126;DHT22;40360;52.992;6.796;2024-01-07T09:21:37;-0.10;99.90
54126;DHT22;40360;52.992;6.796;2024-01-07T09:24:04;0.00;99.90
54126;DHT22;40360;52.992;6.796;2024-01-07T09:26:29;0.00;99.90
54126;DHT22;40360;52.992;6.796;2024-01-07T09:28:56;0.10;99.90
54126;DHT22;40360;52.992;6.796;2024-01-07T09:31:22;0.10;99.90
54126;DHT22;40360;52.992;6.796;2024-01-07T09:33:47;0.10;99.90
54126;DHT22;40360;52.992;6.796;2024-01-07T09:36:13;0.20;99.90
54126;DHT22;40360;52.992;6.796;2024-01-07T09:38:40;0.10;99.90
54126;DHT22;40360;52.992;6.796;2024-01-07T09:41:05;0.80;99.90
54126;DHT22;40360;52.992;6.796;2024-01-07T09:43:31;0.20;99.90
54126;DHT22;40360;52.992;6.796;2024-01-07T09:45:57;0.20;99.90
54126;DHT22;40360;52.992;6.796;2024-01-07T09:48:24;0.20;99.90
54126;DHT22;40360;52.992;6.796;2024-01-07T09:50:51;0.20;99.90
54126;DHT22;40360;52.992;6.796;2024-01-07T09:53:20;0.20;99.90
54126;DHT22;40360;52.992;6.796;2024-01-07T09:56:12;0.20;99.90
54126;DHT22;40360;52.992;6.796;2024-01-07T09:58:42;0.30;99.90
54126;DHT22;40360;52.992;6.796;2024-01-07T10:01:08;0.30;99.90
54126;DHT22;40360;52.992;6.796;2024-01-07T10:03:35;0.30;99.90
54126;DHT22;40360;52.992;6.796;2024-01-07T10:06:01;0.40;99.90
54126;DHT22;40360;52.992;6.796;2024-01-07T10:08:26;0.40;99.90
54126;DHT22;40360;52.992;6.796;2024-01-07T10:10:52;0.40;99.90
54126;DHT22;40360;52.992;6.796;2024-01-07T10:13:20;0.50;99.90
54126;DHT22;40360;52.992;6.796;2024-01-07T10:15:45;0.50;99.90
54126;DHT22;40360;52.992;6.796;2024-01-07T10:18:14;0.60;99.90
54126;DHT22;40360;52.992;6.796;2024-01-07T10:20:39;0.60;99.90
54126;DHT22;40360;52.992;6.796;2024-01-07T10:23:05;0.60;99.90
54126;DHT22;40360;52.992;6.796;2024-01-07T10:25:33;0.60;99.90
54126;DHT22;40360;52.992;6.796;2024-01-07T10:28:00;0.70;99.90
54126;DHT22;40360;52.992;6.796;2024-01-07T10:30:27;0.70;99.90
54126;DHT22;40360;52.992;6.796;2024-01-07T10:32:57;0.90;99.90
54126;DHT22;40360;52.992;6.796;2024-01-07T10:35:28;0.70;99.90
54126;DHT22;40360;52.992;6.796;2024-01-07T10:37:55;0.80;99.90
54126;DHT22;40360;52.992;6.796;2024-01-07T10:40:21;0.80;99.90
54126;DHT22;40360;52.992;6.796;2024-01-07T10:42:46;0.80;99.90
54126;DHT22;40360;52.992;6.796;2024-01-07T10:45:13;0.80;99.90
54126;DHT22;40360;52.992;6.796;2024-01-07T10:47:40;0.80;99.90
54126;DHT22;40360;52.992;6.796;2024-01-07T10:50:08;0.80;99.90
54126;DHT22;40360;52.992;6.796;2024-01-07T10:52:40;0.80;99.90
54126;DHT22;40360;52.992;6.796;2024-01-07T10:55:09;0.90;99.90
54126;DHT22;40360;52.992;6.796;2024-01-07T10:57:44;0.90;99.90
54126;DHT22;40360;52.992;6.796;2024-01-07T11:00:12;1.00;99.90
54126;DHT22;40360;52.992;6.796;2024-01-07T11:05:31;1.10;99.90
54126;DHT22;40360;52.992;6.796;2024-01-07T11:10:53;1.20;99.90
54126;DHT22;40360;52.992;6.796;2024-01-07T11:13:37;1.20;99.90
54126;DHT22;40360;52.992;6.796;2024-01-07T11:19:31;1.20;99.90
54126;DHT22;40360;52.992;6.796;2024-01-07T11:22:25;1.20;99.90
54126;DHT22;40360;52.992;6.796;2024-01-07T11:24:54;1.20;99.90
54126;DHT22;40360;52.992;6.796;2024-01-07T11:27:34;1.10;99.90
54126;DHT22;40360;52.992;6.796;2024-01-07T11:30:04;1.20;99.90
54126;DHT22;40360;52.992;6.796;2024-01-07T11:32:34;1.20;99.90
54126;DHT22;40360;52.992;6.796;2024-01-07T11:35:00;1.20;99.90
54126;DHT22;40360;52.992;6.796;2024-01-07T11:37:28;1.20;99.90
54126;DHT22;40360;52.992;6.796;2024-01-07T11:39:59;1.20;99.90
54126;DHT22;40360;52.992;6.796;2024-01-07T11:42:48;1.10;99.90
54126;DHT22;40360;52.992;6.796;2024-01-07T11:45:33;1.10;99.90
54126;DHT22;40360;52.992;6.796;2024-01-07T11:48:10;1.10;99.90
54126;DHT22;40360;52.992;6.796;2024-01-07T11:50:39;1.10;99.90
54126;DHT22;40360;52.992;6.796;2024-01-07T11:53:05;1.10;99.90
54126;DHT22;40360;52.992;6.796;2024-01-07T11:55:56;2.00;99.90
54126;DHT22;40360;52.992;6.796;2024-01-07T11:58:51;1.10;99.90
54126;DHT22;40360;52.992;6.796;2024-01-07T12:01:41;1.20;99.90
54126;DHT22;40360;52.992;6.796;2024-01-07T12:04:07;1.20;99.90
54126;DHT22;40360;52.992;6.796;2024-01-07T12:06:38;1.20;99.90
54126;DHT22;40360;52.992;6.796;2024-01-07T12:09:07;1.60;99.90
54126;DHT22;40360;52.992;6.796;2024-01-07T12:11:52;1.20;99.90
54126;DHT22;40360;52.992;6.796;2024-01-07T12:14:19;1.30;99.90
54126;DHT22;40360;52.992;6.796;2024-01-07T12:16:45;1.30;99.90
54126;DHT22;40360;52.992;6.796;2024-01-07T12:19:12;1.60;99.90
54126;DHT22;40360;52.992;6.796;2024-01-07T12:21:42;1.30;99.90
54126;DHT22;40360;52.992;6.796;2024-01-07T12:24:33;1.30;99.90
54126;DHT22;40360;52.992;6.796;2024-01-07T12:29:44;1.30;99.90
54126;DHT22;40360;52.992;6.796;2024-01-07T12:32:38;2.20;99.90
54126;DHT22;40360;52.992;6.796;2024-01-07T12:35:26;1.10;99.90
54126;DHT22;40360;52.992;6.796;2024-01-07T12:37:52;1.90;99.90
54126;DHT22;40360;52.992;6.796;2024-01-07T12:40:18;1.00;99.90
54126;DHT22;40360;52.992;6.796;2024-01-07T12:42:45;1.40;99.90
54126;DHT22;40360;52.992;6.796;2024-01-07T12:45:13;0.90;99.90
54126;DHT22;40360;52.992;6.796;2024-01-07T12:47:41;0.90;99.90
54126;DHT22;40360;52.992;6.796;2024-01-07T12:50:26;1.20;99.90
54126;DHT22;40360;52.992;6.796;2024-01-07T12:53:24;0.90;99.90
54126;DHT22;40360;52.992;6.796;2024-01-07T12:55:53;0.90;99.90
54126;DHT22;40360;52.992;6.796;2024-01-07T12:58:22;0.90;99.90
54126;DHT22;40360;52.992;6.796;2024-01-07T13:00:49;1.00;99.90
54126;DHT22;40360;52.992;6.796;2024-01-07T13:03:15;0.90;99.90
54126;DHT22;40360;52.992;6.796;2024-01-07T13:05:45;0.90;99.90
54126;DHT22;40360;52.992;6.796;2024-01-07T13:08:15;0.90;99.90
54126;DHT22;40360;52.992;6.796;2024-01-07T13:10:41;0.90;99.90
54126;DHT22;40360;52.992;6.796;2024-01-07T13:13:32;0.90;99.90
54126;DHT22;40360;52.992;6.796;2024-01-07T13:15:57;0.90;99.90
54126;DHT22;40360;52.992;6.796;2024-01-07T13:18:26;0.80;99.90
54126;DHT22;40360;52.992;6.796;2024-01-07T13:20:52;0.80;99.90
54126;DHT22;40360;52.992;6.796;2024-01-07T13:23:18;0.80;99.90
54126;DHT22;40360;52.992;6.796;2024-01-07T13:25:44;0.70;99.90
54126;DHT22;40360;52.992;6.796;2024-01-07T13:28:14;0.70;99.90
54126;DHT22;40360;52.992;6.796;2024-01-07T13:30:46;0.70;99.90
54126;DHT22;40360;52.992;6.796;2024-01-07T13:33:12;0.70;99.90
54126;DHT22;40360;52.992;6.796;2024-01-07T13:35:38;0.70;99.90
54126;DHT22;40360;52.992;6.796;2024-01-07T13:38:33;0.40;99.90
54126;DHT22;40360;52.992;6.796;2024-01-07T13:43:55;0.80;99.90
54126;DHT22;40360;52.992;6.796;2024-01-07T13:46:24;0.90;99.90
54126;DHT22;40360;52.992;6.796;2024-01-07T13:48:50;0.90;99.90
54126;DHT22;40360;52.992;6.796;2024-01-07T13:51:17;0.90;99.90
54126;DHT22;40360;52.992;6.796;2024-01-07T13:53:43;1.30;99.90
54126;DHT22;40360;52.992;6.796;2024-01-07T13:56:11;0.90;99.90
54126;DHT22;40360;52.992;6.796;2024-01-07T13:58:37;0.90;99.90
54126;DHT22;40360;52.992;6.796;2024-01-07T14:01:03;0.80;99.90
54126;DHT22;40360;52.992;6.796;2024-01-07T14:03:56;0.80;99.90
54126;DHT22;40360;52.992;6.796;2024-01-07T14:06:27;1.20;99.90
54126;DHT22;40360;52.992;6.796;2024-01-07T14:08:57;0.80;99.90
54126;DHT22;40360;52.992;6.796;2024-01-07T14:14:35;0.70;99.90
54126;DHT22;40360;52.992;6.796;2024-01-07T14:17:03;0.70;99.90
54126;DHT22;40360;52.992;6.796;2024-01-07T14:19:29;0.70;99.90
54126;DHT22;40360;52.992;6.796;2024-01-07T14:21:55;0.70;99.90
54126;DHT22;40360;52.992;6.796;2024-01-07T14:24:30;0.70;99.90
54126;DHT22;40360;52.992;6.796;2024-01-07T14:26:56;0.70;99.90
54126;DHT22;40360;52.992;6.796;2024-01-07T14:29:21;0.70;99.90
54126;DHT22;40360;52.992;6.796;2024-01-07T14:31:47;0.70;99.90
54126;DHT22;40360;52.992;6.796;2024-01-07T14:34:14;0.60;99.90
54126;DHT22;40360;52.992;6.796;2024-01-07T14:36:40;0.60;99.90
54126;DHT22;40360;52.992;6.796;2024-01-07T14:39:10;0.50;99.90
54126;DHT22;40360;52.992;6.796;2024-01-07T14:41:39;0.60;99.90
54126;DHT22;40360;52.992;6.796;2024-01-07T14:44:06;0.50;99.90
54126;DHT22;40360;52.992;6.796;2024-01-07T14:46:35;0.50;99.90
54126;DHT22;40360;52.992;6.796;2024-01-07T14:49:01;0.50;99.90
54126;DHT22;40360;52.992;6.796;2024-01-07T14:51:26;0.50;99.90
54126;DHT22;40360;52.992;6.796;2024-01-07T14:53:52;0.50;99.90
54126;DHT22;40360;52.992;6.796;2024-01-07T14:56:19;0.50;99.90
54126;DHT22;40360;52.992;6.796;2024-01-07T14:58:48;0.50;99.90
54126;DHT22;40360;52.992;6.796;2024-01-07T15:01:22;0.50;99.90
54126;DHT22;40360;52.992;6.796;2024-01-07T15:03:48;0.40;99.90
54126;DHT22;40360;52.992;6.796;2024-01-07T15:06:39;0.40;99.90
54126;DHT22;40360;52.992;6.796;2024-01-07T15:09:17;0.30;99.90
54126;DHT22;40360;52.992;6.796;2024-01-07T15:11:43;0.30;99.90
54126;DHT22;40360;52.992;6.796;2024-01-07T15:14:27;0.30;99.90
54126;DHT22;40360;52.992;6.796;2024-01-07T15:17:31;0.20;99.90
54126;DHT22;40360;52.992;6.796;2024-01-07T15:20:01;0.20;99.90
54126;DHT22;40360;52.992;6.796;2024-01-07T15:22:27;0.40;99.90
54126;DHT22;40360;52.992;6.796;2024-01-07T15:24:53;0.10;99.90
54126;DHT22;40360;52.992;6.796;2024-01-07T15:27:19;0.10;99.90
54126;DHT22;40360;52.992;6.796;2024-01-07T15:29:44;0.10;99.90
54126;DHT22;40360;52.992;6.796;2024-01-07T15:32:10;0.00;99.90
54126;DHT22;40360;52.992;6.796;2024-01-07T15:34:36;0.00;99.90
54126;DHT22;40360;52.992;6.796;2024-01-07T15:41:08;0.00;99.90
54126;DHT22;40360;52.992;6.796;2024-01-07T15:43:41;0.00;99.90
54126;DHT22;40360;52.992;6.796;2024-01-07T15:46:19;0.00;99.90
54126;DHT22;40360;52.992;6.796;2024-01-07T15:48:45;-0.10;99.90
54126;DHT22;40360;52.992;6.796;2024-01-07T15:51:11;0.40;99.90
54126;DHT22;40360;52.992;6.796;2024-01-07T15:53:37;-0.20;99.90
54126;DHT22;40360;52.992;6.796;2024-01-07T15:56:10;-0.30;99.90
54126;DHT22;40360;52.992;6.796;2024-01-07T15:58:38;0.30;99.90
54126;DHT22;40360;52.992;6.796;2024-01-07T16:01:04;-0.30;99.90
54126;DHT22;40360;52.992;6.796;2024-01-07T16:03:47;0.10;99.90
54126;DHT22;40360;52.992;6.796;2024-01-07T16:06:13;-0.40;99.90
54126;DHT22;40360;52.992;6.796;2024-01-07T16:08:38;0.30;99.90
54126;DHT22;40360;52.992;6.796;2024-01-07T16:11:04;0.40;99.90
54126;DHT22;40360;52.992;6.796;2024-01-07T16:13:33;0.00;99.90
54126;DHT22;40360;52.992;6.796;2024-01-07T16:16:00;-0.50;99.90
54126;DHT22;40360;52.992;6.796;2024-01-07T16:18:26;-0.50;99.90
54126;DHT22;40360;52.992;6.796;2024-01-07T16:20:52;-0.50;99.90
54126;DHT22;40360;52.992;6.796;2024-01-07T16:23:23;-0.50;99.90